createdAt,value
2017-09-15T00:01:12.036Z,9.60
2017-09-15T00:03:40.361Z,9.60
2017-09-15T00:06:08.655Z,9.60
2017-09-15T00:08:36.184Z,9.60
2017-09-15T00:11:03.752Z,9.60
2017-09-15T00:13:31.303Z,9.60
2017-09-15T00:15:58.831Z,9.60
2017-09-15T00:18:26.447Z,9.60
2017-09-15T00:20:54.744Z,9.60
2017-09-15T00:23:22.276Z,9.60
2017-09-15T00:25:50.599Z,9.60
2017-09-15T00:28:18.131Z,9.60
2017-09-15T00:30:45.655Z,9.60
2017-09-15T00:33:24.334Z,9.60
2017-09-15T00:39:07.025Z,9.60
2017-09-15T00:41:35.095Z,9.60
2017-09-15T00:44:03.397Z,9.60
2017-09-15T00:46:30.952Z,9.50
2017-09-15T00:48:58.479Z,9.60
2017-09-15T00:51:26.007Z,9.60
2017-09-15T00:53:53.636Z,9.60
2017-09-15T00:56:21.172Z,9.60
2017-09-15T00:58:49.471Z,9.60
2017-09-15T01:01:17.019Z,9.60
2017-09-15T01:09:26.754Z,9.40
2017-09-15T01:11:54.296Z,9.40
2017-09-15T01:14:21.820Z,9.40
2017-09-15T01:16:49.378Z,9.40
2017-09-15T01:19:17.666Z,9.40
2017-09-15T01:21:45.196Z,9.40
2017-09-15T01:24:12.753Z,9.40
2017-09-15T01:26:40.283Z,9.40
2017-09-15T01:29:07.808Z,9.40
2017-09-15T01:31:35.607Z,9.40
2017-09-15T01:34:03.139Z,9.40
2017-09-15T01:36:30.672Z,9.40
2017-09-15T01:38:58.225Z,9.30
2017-09-15T01:41:26.519Z,9.20
2017-09-15T01:43:54.059Z,9.20
2017-09-15T01:46:21.611Z,9.20
2017-09-15T01:48:49.139Z,9.20
2017-09-15T01:51:16.667Z,9.20
2017-09-15T01:53:44.247Z,9.20
2017-09-15T01:56:11.777Z,9.20
2017-09-15T01:58:40.098Z,8.90
2017-09-15T02:01:07.675Z,9.00
2017-09-15T02:03:35.201Z,9.00
2017-09-15T02:06:02.750Z,8.90
2017-09-15T02:08:30.308Z,8.80
2017-09-15T02:10:57.839Z,8.80
2017-09-15T02:13:25.362Z,8.90
2017-09-15T02:15:52.943Z,8.80
2017-09-15T02:18:20.467Z,8.70
2017-09-15T02:20:47.988Z,8.60
2017-09-15T02:23:16.416Z,8.50
2017-09-15T02:25:43.939Z,8.50
2017-09-15T02:28:11.468Z,8.40
2017-09-15T02:30:39.027Z,8.30
2017-09-15T02:33:06.550Z,8.40
2017-09-15T02:35:34.084Z,8.40
2017-09-15T02:38:01.663Z,8.50
2017-09-15T02:40:29.192Z,8.50
2017-09-15T02:42:56.730Z,8.50
2017-09-15T02:45:24.711Z,8.50
2017-09-15T02:47:52.239Z,8.50
2017-09-15T02:50:19.767Z,8.50
2017-09-15T02:52:47.320Z,8.60
2017-09-15T02:55:16.381Z,8.60
2017-09-15T02:57:44.675Z,8.60
2017-09-15T03:00:12.279Z,8.60
2017-09-15T03:02:39.799Z,8.60
2017-09-15T03:05:07.338Z,8.60
2017-09-15T03:07:35.695Z,8.70
2017-09-15T03:10:03.223Z,8.60
2017-09-15T03:12:30.752Z,8.70
2017-09-15T03:14:58.304Z,8.70
2017-09-15T03:17:26.599Z,8.70
2017-09-15T03:19:54.123Z,8.70
2017-09-15T03:22:21.704Z,8.70
2017-09-15T03:24:49.999Z,8.60
2017-09-15T03:27:17.528Z,8.60
2017-09-15T03:29:45.844Z,8.60
2017-09-15T03:32:14.552Z,8.50
2017-09-15T03:34:42.078Z,8.50
2017-09-15T03:37:09.634Z,8.50
2017-09-15T03:39:37.171Z,8.50
2017-09-15T03:42:05.465Z,8.50
2017-09-15T03:44:33.043Z,8.50
2017-09-15T03:47:01.071Z,8.50
2017-09-15T03:49:28.596Z,8.50
2017-09-15T03:51:56.156Z,8.40
2017-09-15T03:54:23.679Z,8.50
2017-09-15T03:56:51.200Z,8.40
2017-09-15T03:59:18.755Z,8.40
2017-09-15T04:01:46.283Z,8.40
2017-09-15T04:04:25.567Z,8.40
2017-09-15T04:09:25.920Z,8.30
2017-09-15T04:11:53.518Z,8.20
2017-09-15T04:14:21.067Z,8.20
2017-09-15T04:16:48.595Z,8.10
2017-09-15T04:19:16.419Z,8.10
2017-09-15T04:21:43.952Z,8.10
2017-09-15T04:24:11.479Z,8.10
2017-09-15T04:26:39.832Z,8.10
2017-09-15T04:29:07.355Z,8.00
2017-09-15T04:31:34.891Z,8.10
2017-09-15T04:34:02.649Z,8.00
2017-09-15T04:36:30.959Z,8.00
2017-09-15T04:38:58.495Z,8.00
2017-09-15T04:41:26.056Z,8.00
2017-09-15T04:43:53.596Z,7.90
2017-09-15T04:46:21.893Z,7.80
2017-09-15T04:48:49.495Z,7.80
2017-09-15T04:51:17.031Z,7.80
2017-09-15T04:53:44.595Z,7.80
2017-09-15T04:56:13.879Z,7.70
2017-09-15T04:58:41.411Z,7.70
2017-09-15T05:01:09.699Z,7.70
2017-09-15T05:03:37.256Z,7.70
2017-09-15T05:06:04.827Z,7.70
2017-09-15T05:08:32.398Z,7.80
2017-09-15T05:10:59.984Z,7.70
2017-09-15T05:13:27.515Z,7.80
2017-09-15T05:15:55.039Z,7.70
2017-09-15T05:18:22.635Z,7.80
2017-09-15T05:20:50.163Z,7.80
2017-09-15T05:23:18.455Z,7.70
2017-09-15T05:25:46.770Z,7.80
2017-09-15T05:28:24.507Z,7.80
2017-09-15T05:35:07.163Z,7.90
2017-09-15T05:37:35.511Z,7.90
2017-09-15T05:40:03.896Z,7.90
2017-09-15T05:42:31.514Z,8.00
2017-09-15T05:44:59.067Z,8.00
2017-09-15T05:47:26.605Z,8.00
2017-09-15T05:49:54.931Z,8.20
2017-09-15T05:52:22.467Z,8.20
2017-09-15T05:54:49.991Z,8.20
2017-09-15T05:57:17.611Z,8.30
2017-09-15T05:59:45.141Z,8.30
2017-09-15T06:02:14.443Z,8.40
2017-09-15T06:04:41.995Z,8.30
2017-09-15T06:07:09.515Z,8.50
2017-09-15T06:09:37.040Z,8.50
2017-09-15T06:12:04.604Z,8.60
2017-09-15T06:14:32.132Z,8.70
2017-09-15T06:16:59.667Z,8.70
2017-09-15T06:19:28.412Z,8.80
2017-09-15T06:21:56.699Z,9.00
2017-09-15T06:24:24.224Z,8.90
2017-09-15T06:26:51.784Z,9.10
2017-09-15T06:29:19.308Z,9.10
2017-09-15T06:31:46.839Z,9.20
2017-09-15T06:34:15.489Z,9.30
2017-09-15T06:36:43.013Z,9.40
2017-09-15T06:39:10.535Z,9.40
2017-09-15T06:41:38.114Z,9.40
2017-09-15T06:44:05.635Z,9.60
2017-09-15T06:46:33.155Z,9.70
2017-09-15T06:49:00.710Z,9.80
2017-09-15T06:51:28.507Z,9.80
2017-09-15T06:53:56.035Z,10.00
2017-09-15T06:56:23.587Z,10.80
2017-09-15T06:58:51.115Z,12.10
2017-09-15T07:01:19.416Z,16.00
2017-09-15T07:03:47.027Z,16.00
2017-09-15T07:06:15.553Z,17.70
2017-09-15T07:08:43.083Z,19.70
2017-09-15T07:11:10.640Z,20.90
2017-09-15T07:13:38.944Z,22.90
2017-09-15T07:16:06.471Z,22.80
2017-09-15T07:18:34.044Z,24.00
2017-09-15T07:21:01.576Z,24.50
2017-09-15T07:23:29.120Z,25.60
2017-09-15T07:25:57.763Z,26.80
2017-09-15T07:28:25.303Z,26.70
2017-09-15T07:30:52.835Z,26.70
2017-09-15T07:33:20.391Z,27.10
2017-09-15T07:35:48.679Z,27.60
2017-09-15T07:38:16.491Z,27.60
2017-09-15T07:40:44.056Z,28.60
2017-09-15T07:43:11.581Z,28.40
2017-09-15T07:45:39.127Z,29.10
2017-09-15T07:48:06.719Z,28.80
2017-09-15T07:50:34.243Z,28.80
2017-09-15T07:53:03.119Z,30.00
2017-09-15T07:55:30.684Z,29.90
2017-09-15T07:57:58.971Z,31.00
2017-09-15T08:00:26.503Z,31.00
2017-09-15T08:02:54.847Z,32.20
2017-09-15T08:05:22.380Z,32.10
2017-09-15T08:07:49.915Z,32.60
2017-09-15T08:10:18.258Z,32.90
2017-09-15T08:12:47.111Z,32.90
2017-09-15T08:15:16.448Z,32.80
2017-09-15T08:17:44.018Z,32.40
2017-09-15T08:20:11.543Z,32.80
2017-09-15T08:22:39.076Z,33.40
2017-09-15T08:25:06.651Z,33.70
2017-09-15T08:27:34.191Z,33.50
2017-09-15T08:30:02.484Z,32.30
2017-09-15T08:32:30.092Z,32.30
2017-09-15T08:34:57.619Z,33.10
2017-09-15T08:37:25.146Z,33.60
2017-09-15T08:39:53.472Z,34.30
2017-09-15T08:42:21.002Z,34.30
2017-09-15T08:44:48.523Z,34.30
2017-09-15T08:47:16.424Z,34.20
2017-09-15T08:49:43.959Z,34.20
2017-09-15T08:52:12.255Z,34.00
2017-09-15T08:54:40.057Z,34.00
2017-09-15T08:57:07.579Z,34.50
2017-09-15T08:59:35.116Z,34.30
2017-09-15T09:02:02.675Z,33.50
2017-09-15T09:04:30.199Z,32.90
2017-09-15T09:06:57.913Z,31.40
2017-09-15T09:09:25.471Z,31.10
2017-09-15T09:11:53.772Z,34.30
2017-09-15T09:14:21.320Z,34.20
2017-09-15T09:16:48.903Z,34.60
2017-09-15T09:19:16.436Z,35.20
2017-09-15T09:21:44.772Z,35.20
2017-09-15T09:24:12.331Z,35.20
2017-09-15T09:26:39.866Z,36.10
2017-09-15T09:29:07.408Z,36.90
2017-09-15T09:31:34.974Z,37.50
2017-09-15T09:34:02.512Z,35.60
2017-09-15T09:36:30.048Z,34.50
2017-09-15T09:38:57.657Z,34.10
2017-09-15T09:41:25.199Z,34.70
2017-09-15T09:43:52.734Z,35.60
2017-09-15T09:46:20.318Z,34.50
2017-09-15T09:48:47.901Z,32.20
2017-09-15T09:51:16.443Z,30.10
2017-09-15T09:53:44.763Z,27.90
2017-09-15T09:56:12.287Z,27.90
2017-09-15T09:58:39.808Z,27.00
2017-09-15T10:01:07.391Z,26.00
2017-09-15T10:03:34.915Z,25.30
2017-09-15T10:06:02.458Z,24.70
2017-09-15T10:08:30.800Z,22.90
2017-09-15T10:10:58.343Z,22.90
2017-09-15T10:13:25.876Z,22.40
2017-09-15T10:15:53.430Z,22.10
2017-09-15T10:18:20.965Z,21.80
2017-09-15T10:20:48.486Z,21.60
2017-09-15T10:23:16.423Z,21.20
2017-09-15T10:25:43.953Z,20.60
2017-09-15T10:28:11.503Z,20.60
2017-09-15T10:30:39.060Z,20.30
2017-09-15T10:33:06.587Z,20.20
2017-09-15T10:35:34.255Z,20.00
2017-09-15T10:38:02.271Z,20.00
2017-09-15T10:40:29.807Z,20.20
2017-09-15T10:42:57.334Z,20.30
2017-09-15T10:45:25.475Z,20.00
2017-09-15T10:47:52.999Z,19.80
2017-09-15T10:50:20.535Z,19.80
2017-09-15T10:52:48.104Z,19.60
2017-09-15T10:55:16.442Z,19.30
2017-09-15T10:57:50.026Z,19.30
2017-09-15T11:00:17.555Z,19.20
2017-09-15T11:02:45.083Z,19.30
2017-09-15T11:05:12.664Z,19.40
2017-09-15T11:07:40.199Z,19.40
2017-09-15T11:10:07.720Z,19.30
2017-09-15T11:12:35.276Z,19.30
2017-09-15T11:15:03.571Z,18.90
2017-09-15T11:17:31.104Z,18.90
2017-09-15T11:19:58.659Z,18.80
2017-09-15T11:22:26.187Z,18.80
2017-09-15T11:24:53.708Z,18.70
2017-09-15T11:27:21.299Z,18.40
2017-09-15T11:29:48.831Z,18.40
2017-09-15T11:32:16.391Z,18.50
2017-09-15T11:34:43.960Z,18.80
2017-09-15T11:37:11.490Z,19.00
2017-09-15T11:39:39.884Z,19.10
2017-09-15T11:42:07.456Z,19.00
2017-09-15T11:44:34.990Z,18.90
2017-09-15T11:47:02.515Z,19.10
2017-09-15T11:49:30.142Z,19.20
2017-09-15T11:51:57.678Z,19.20
2017-09-15T11:54:25.225Z,19.40
2017-09-15T11:56:52.787Z,19.40
2017-09-15T11:59:20.931Z,19.20
2017-09-15T12:01:49.225Z,18.90
2017-09-15T12:04:16.785Z,18.90
2017-09-15T12:06:44.319Z,19.00
2017-09-15T12:09:11.852Z,18.90
2017-09-15T12:11:39.681Z,18.80
2017-09-15T12:14:07.302Z,18.80
2017-09-15T14:28:41.762Z,18.70
2017-09-15T14:31:10.549Z,18.70
2017-09-15T14:33:38.079Z,18.70
2017-09-15T14:36:05.646Z,18.60
2017-09-15T14:38:34.011Z,18.40
2017-09-15T14:41:01.545Z,18.40
2017-09-15T14:43:29.114Z,18.40
2017-09-15T14:45:56.651Z,18.40
2017-09-15T14:48:24.201Z,18.50
2017-09-15T14:50:51.790Z,18.20
2017-09-15T14:53:19.317Z,18.20
2017-09-15T14:55:46.842Z,18.30
2017-09-15T14:58:15.494Z,18.10
2017-09-15T15:00:43.024Z,18.10
2017-09-15T15:03:10.547Z,18.20
2017-09-15T15:05:38.108Z,18.10
2017-09-15T15:08:06.404Z,18.00
2017-09-15T15:10:33.936Z,18.00
2017-09-15T15:13:01.540Z,18.10
2017-09-15T15:15:29.071Z,18.10
2017-09-15T15:17:56.628Z,18.00
2017-09-15T15:20:24.960Z,18.00
2017-09-15T15:22:52.491Z,18.00
2017-09-15T15:25:20.020Z,18.10
2017-09-15T15:27:48.349Z,18.00
2017-09-15T15:30:16.846Z,18.00
2017-09-15T15:32:44.380Z,17.90
2017-09-15T15:35:12.019Z,17.80
2017-09-15T15:37:39.558Z,17.70
2017-09-15T15:40:07.091Z,17.60
2017-09-15T15:42:34.656Z,17.50
2017-09-15T15:45:02.191Z,17.40
2017-09-15T15:47:29.734Z,17.40
2017-09-15T15:49:57.295Z,17.40
2017-09-15T15:52:24.825Z,17.30
2017-09-15T15:54:53.122Z,17.00
2017-09-15T15:57:21.479Z,16.90
2017-09-15T15:59:49.008Z,16.90
2017-09-15T16:02:16.531Z,16.80
2017-09-15T16:04:44.088Z,16.70
2017-09-15T16:07:12.393Z,16.60
2017-09-15T16:09:40.435Z,16.50
2017-09-15T16:12:07.997Z,16.40
2017-09-15T16:14:35.527Z,16.40
2017-09-15T16:17:03.055Z,16.30
2017-09-15T16:19:30.635Z,16.30
2017-09-15T16:21:58.168Z,16.20
2017-09-15T16:24:25.711Z,16.10
2017-09-15T16:26:53.288Z,16.00
2017-09-15T16:29:20.819Z,16.00
2017-09-15T16:31:48.856Z,16.00
2017-09-15T16:34:17.972Z,15.90
2017-09-15T16:36:45.512Z,15.90
2017-09-15T16:39:21.092Z,15.80
2017-09-15T16:41:55.050Z,15.80
2017-09-15T16:44:29.163Z,15.80
2017-09-15T16:47:02.306Z,15.70
2017-09-15T16:49:30.169Z,15.70
2017-09-15T16:51:57.761Z,15.70
2017-09-15T16:54:25.949Z,15.60
2017-09-15T16:56:54.321Z,15.50
2017-09-15T16:59:21.856Z,15.50
2017-09-15T17:01:49.378Z,15.60
2017-09-15T17:04:16.943Z,15.50
2017-09-15T17:06:44.475Z,15.50
2017-09-15T17:09:12.004Z,15.40
2017-09-15T17:11:39.616Z,15.30
2017-09-15T17:14:07.167Z,15.30
2017-09-15T17:16:35.552Z,15.20
2017-09-15T17:19:04.003Z,15.20
2017-09-15T17:21:31.540Z,15.20
2017-09-15T17:23:59.085Z,15.20
2017-09-15T17:26:27.424Z,15.10
2017-09-15T17:28:57.278Z,15.10
2017-09-15T17:31:25.447Z,15.10
2017-09-15T17:33:56.478Z,15.10
2017-09-15T17:36:24.065Z,15.00
2017-09-15T17:38:51.694Z,15.00
2017-09-15T17:41:19.298Z,15.00
2017-09-15T17:43:46.821Z,15.00
2017-09-15T17:46:25.500Z,14.90
2017-09-15T17:51:47.160Z,14.70
2017-09-15T17:54:15.620Z,14.70
2017-09-15T17:56:43.191Z,14.60
2017-09-15T17:59:12.888Z,14.60
2017-09-15T18:01:40.576Z,14.60
2017-09-15T18:04:08.904Z,14.60
2017-09-15T18:06:36.514Z,14.60
2017-09-15T18:09:06.382Z,14.50
2017-09-15T18:11:34.115Z,14.50
2017-09-15T18:14:01.736Z,14.50
2017-09-15T18:16:30.040Z,14.40
2017-09-15T18:18:57.597Z,14.40
2017-09-15T18:21:25.182Z,14.40
2017-09-15T18:23:52.719Z,14.30
2017-09-15T18:26:20.251Z,14.30
2017-09-15T18:28:47.918Z,14.30
2017-09-15T18:31:17.149Z,14.20
2017-09-15T18:33:44.679Z,14.20
2017-09-15T18:36:12.491Z,14.20
2017-09-15T18:38:40.789Z,14.20
2017-09-15T18:41:08.330Z,14.20
2017-09-15T18:43:35.944Z,14.20
2017-09-15T18:46:03.466Z,14.10
2017-09-15T18:48:31.079Z,14.10
2017-09-15T18:50:59.416Z,14.20
2017-09-15T18:53:26.956Z,14.20
2017-09-15T18:58:34.820Z,14.00
2017-09-15T19:01:02.548Z,14.00
2017-09-15T19:06:03.944Z,14.00
2017-09-15T19:08:31.479Z,13.90
2017-09-15T19:10:59.023Z,13.90
2017-09-15T19:13:26.611Z,14.00
2017-09-15T19:15:54.151Z,13.90
2017-09-15T19:18:21.691Z,13.80
2017-09-15T19:20:49.251Z,13.80
2017-09-15T19:23:16.821Z,13.80
2017-09-15T19:25:44.351Z,13.70
2017-09-15T19:28:11.981Z,13.70
2017-09-15T19:30:39.559Z,13.70
2017-09-15T19:33:07.092Z,13.60
2017-09-15T19:35:34.654Z,13.60
2017-09-15T19:38:02.351Z,13.60
2017-09-15T19:40:37.012Z,13.60
2017-09-15T19:43:04.564Z,13.60
2017-09-15T19:45:32.100Z,13.50
2017-09-15T19:47:59.781Z,13.50
2017-09-15T19:50:28.124Z,13.40
2017-09-15T19:52:55.671Z,13.40
2017-09-15T19:55:23.277Z,13.40
2017-09-15T19:57:50.836Z,13.40
2017-09-15T20:00:19.051Z,13.40
2017-09-15T20:02:46.628Z,13.40
2017-09-15T20:05:16.290Z,13.40
2017-09-15T20:07:43.833Z,13.30
2017-09-15T20:10:11.431Z,13.30
2017-09-15T20:12:38.951Z,13.20
2017-09-15T20:15:06.503Z,13.20
2017-09-15T20:17:34.059Z,13.10
2017-09-15T20:20:01.726Z,13.10
2017-09-15T20:22:30.078Z,13.10
2017-09-15T20:24:58.423Z,13.10
2017-09-15T20:27:26.021Z,13.10
2017-09-15T20:29:53.566Z,13.00
2017-09-15T20:32:21.182Z,12.90
2017-09-15T20:34:48.726Z,12.90
2017-09-15T20:37:17.227Z,12.90
2017-09-15T20:39:45.355Z,12.90
2017-09-15T20:42:24.313Z,12.90
2017-09-15T20:49:28.277Z,12.80
2017-09-15T20:51:55.807Z,12.70
2017-09-15T20:54:23.339Z,12.60
2017-09-15T20:56:50.919Z,12.60
2017-09-15T20:59:19.215Z,12.60
2017-09-15T21:01:46.773Z,12.50
2017-09-15T21:04:16.315Z,12.60
2017-09-15T21:06:43.847Z,12.60
2017-09-15T21:09:11.384Z,12.70
2017-09-15T21:11:38.975Z,12.70
2017-09-15T21:14:06.554Z,12.80
2017-09-15T21:16:34.090Z,12.80
2017-09-15T21:19:01.812Z,12.80
2017-09-15T21:21:29.375Z,12.80
2017-09-15T21:23:57.692Z,12.80
2017-09-15T21:26:26.035Z,12.70
2017-09-15T21:28:54.333Z,12.70
2017-09-15T21:31:21.887Z,12.70
2017-09-15T21:33:49.491Z,12.60
2017-09-15T21:36:17.037Z,12.60
2017-09-15T21:38:44.602Z,12.60
2017-09-15T21:41:12.459Z,12.60
2017-09-15T21:43:39.997Z,12.60
2017-09-15T21:46:07.565Z,12.60
2017-09-15T21:48:35.240Z,12.60
2017-09-15T21:51:02.784Z,12.60
2017-09-15T21:53:30.319Z,12.60
2017-09-15T21:55:58.684Z,12.50
2017-09-15T21:58:26.215Z,12.50
2017-09-15T22:00:53.753Z,12.60
2017-09-15T22:03:21.313Z,12.60
2017-09-15T22:05:48.847Z,12.50
2017-09-15T22:08:16.473Z,12.40
2017-09-15T22:10:44.036Z,12.50
2017-09-15T22:13:11.573Z,12.40
2017-09-15T22:15:39.108Z,12.40
2017-09-15T22:18:06.691Z,12.30
2017-09-15T22:20:34.229Z,12.30
2017-09-15T22:23:01.765Z,12.20
2017-09-15T22:25:29.319Z,12.20
2017-09-15T22:27:57.624Z,12.20
2017-09-15T22:30:25.147Z,12.20
2017-09-15T22:32:52.707Z,12.20
2017-09-15T22:35:21.000Z,12.10
2017-09-15T22:37:48.541Z,12.10
2017-09-15T22:40:16.483Z,12.10
2017-09-15T22:42:44.266Z,12.10
2017-09-15T22:45:11.799Z,12.20
2017-09-15T22:47:39.367Z,12.10
2017-09-15T22:50:06.899Z,12.10
2017-09-15T22:52:34.440Z,12.10
2017-09-15T22:55:01.995Z,12.10
2017-09-15T22:57:29.532Z,12.10
2017-09-15T22:59:57.062Z,12.10
2017-09-15T23:02:24.663Z,12.10
2017-09-15T23:04:52.965Z,12.10
2017-09-15T23:07:20.499Z,12.00
2017-09-15T23:09:48.823Z,12.00
2017-09-15T23:12:17.175Z,12.00
2017-09-15T23:14:44.704Z,12.00
2017-09-15T23:17:12.255Z,12.00
2017-09-15T23:19:39.784Z,12.00
2017-09-15T23:22:07.310Z,12.00
2017-09-15T23:24:34.904Z,12.00
2017-09-15T23:27:02.444Z,11.90
2017-09-15T23:29:29.975Z,12.00
2017-09-15T23:31:57.535Z,12.00
2017-09-15T23:34:25.832Z,12.00
2017-09-15T23:36:53.364Z,11.90
2017-09-15T23:39:21.683Z,12.00
2017-09-15T23:41:49.215Z,12.00
2017-09-15T23:44:17.980Z,12.10
2017-09-15T23:46:45.568Z,12.10
2017-09-15T23:49:25.240Z,12.10
2017-09-15T23:56:06.527Z,12.00
2017-09-15T23:58:34.064Z,11.90
